sensor_id;sensor_type;location;lat;lon;timestamp;P1;durP1;ratioP1;P2;durP2;ratioP2
39948;SDS011;29070;48.102;-1.652;2023-07-20T00:04:58;3.93;;;1.23;;
39948;SDS011;29070;48.102;-1.652;2023-07-20T00:09:59;10.60;;;1.60;;
39948;SDS011;29070;48.102;-1.652;2023-07-20T00:14:59;5.90;;;1.73;;
39948;SDS011;29070;48.102;-1.652;2023-07-20T00:19:59;8.80;;;1.80;;
39948;SDS011;29070;48.102;-1.652;2023-07-20T00:25:00;4.63;;;1.30;;
39948;SDS011;29070;48.102;-1.652;2023-07-20T00:30:00;3.30;;;1.52;;
39948;SDS011;29070;48.102;-1.652;2023-07-20T00:35:01;8.93;;;1.80;;
39948;SDS011;29070;48.102;-1.652;2023-07-20T00:40:01;4.57;;;1.60;;
39948;SDS011;29070;48.102;-1.652;2023-07-20T00:45:04;7.72;;;2.00;;
39948;SDS011;29070;48.102;-1.652;2023-07-20T00:50:05;5.72;;;2.65;;
39948;SDS011;29070;48.102;-1.652;2023-07-20T00:55:07;8.57;;;2.05;;
39948;SDS011;29070;48.102;-1.652;2023-07-20T01:00:09;6.15;;;1.90;;
39948;SDS011;29070;48.102;-1.652;2023-07-20T01:05:10;7.57;;;1.60;;
39948;SDS011;29070;48.102;-1.652;2023-07-20T01:10:16;9.48;;;1.50;;
39948;SDS011;29070;48.102;-1.652;2023-07-20T01:15:18;3.25;;;2.00;;
39948;SDS011;29070;48.102;-1.652;2023-07-20T01:20:19;5.40;;;1.63;;
39948;SDS011;29070;48.102;-1.652;2023-07-20T01:30:34;4.90;;;1.67;;
39948;SDS011;29070;48.102;-1.652;2023-07-20T01:35:41;5.60;;;1.50;;
39948;SDS011;29070;48.102;-1.652;2023-07-20T01:40:43;6.80;;;1.60;;
39948;SDS011;29070;48.102;-1.652;2023-07-20T01:45:44;4.10;;;1.90;;
39948;SDS011;29070;48.102;-1.652;2023-07-20T01:50:45;8.38;;;1.98;;
39948;SDS011;29070;48.102;-1.652;2023-07-20T01:55:45;3.87;;;1.23;;
39948;SDS011;29070;48.102;-1.652;2023-07-20T02:00:46;3.83;;;1.60;;
39948;SDS011;29070;48.102;-1.652;2023-07-20T02:05:46;5.38;;;1.60;;
39948;SDS011;29070;48.102;-1.652;2023-07-20T02:10:47;5.17;;;1.80;;
39948;SDS011;29070;48.102;-1.652;2023-07-20T02:15:48;5.38;;;2.13;;
39948;SDS011;29070;48.102;-1.652;2023-07-20T02:20:49;5.63;;;1.52;;
39948;SDS011;29070;48.102;-1.652;2023-07-20T02:25:49;5.40;;;1.93;;
39948;SDS011;29070;48.102;-1.652;2023-07-20T02:30:50;4.03;;;1.77;;
39948;SDS011;29070;48.102;-1.652;2023-07-20T02:35:50;13.63;;;2.30;;
39948;SDS011;29070;48.102;-1.652;2023-07-20T02:40:51;5.25;;;1.60;;
39948;SDS011;29070;48.102;-1.652;2023-07-20T02:45:52;7.20;;;1.80;;
39948;SDS011;29070;48.102;-1.652;2023-07-20T02:50:53;4.93;;;2.05;;
39948;SDS011;29070;48.102;-1.652;2023-07-20T02:55:53;4.43;;;1.77;;
39948;SDS011;29070;48.102;-1.652;2023-07-20T03:00:55;4.82;;;2.10;;
39948;SDS011;29070;48.102;-1.652;2023-07-20T03:05:55;5.97;;;2.20;;
39948;SDS011;29070;48.102;-1.652;2023-07-20T03:10:57;3.92;;;1.85;;
39948;SDS011;29070;48.102;-1.652;2023-07-20T03:15:57;4.33;;;1.80;;
39948;SDS011;29070;48.102;-1.652;2023-07-20T03:20:58;4.60;;;1.97;;
39948;SDS011;29070;48.102;-1.652;2023-07-20T03:25:58;4.83;;;1.83;;
39948;SDS011;29070;48.102;-1.652;2023-07-20T03:30:58;3.10;;;1.50;;
39948;SDS011;29070;48.102;-1.652;2023-07-20T03:35:59;6.03;;;1.93;;
39948;SDS011;29070;48.102;-1.652;2023-07-20T03:41:00;1.70;;;1.42;;
39948;SDS011;29070;48.102;-1.652;2023-07-20T03:46:00;7.38;;;1.98;;
39948;SDS011;29070;48.102;-1.652;2023-07-20T03:51:01;4.70;;;1.90;;
39948;SDS011;29070;48.102;-1.652;2023-07-20T03:56:01;5.20;;;1.95;;
39948;SDS011;29070;48.102;-1.652;2023-07-20T04:01:02;4.65;;;1.90;;
39948;SDS011;29070;48.102;-1.652;2023-07-20T04:06:02;5.33;;;1.80;;
39948;SDS011;29070;48.102;-1.652;2023-07-20T04:11:02;8.32;;;2.60;;
39948;SDS011;29070;48.102;-1.652;2023-07-20T04:16:03;4.97;;;2.07;;
39948;SDS011;29070;48.102;-1.652;2023-07-20T04:21:03;4.72;;;2.38;;
39948;SDS011;29070;48.102;-1.652;2023-07-20T04:26:04;6.67;;;2.67;;
39948;SDS011;29070;48.102;-1.652;2023-07-20T04:31:13;5.20;;;2.38;;
39948;SDS011;29070;48.102;-1.652;2023-07-20T04:36:14;6.32;;;2.45;;
39948;SDS011;29070;48.102;-1.652;2023-07-20T04:41:19;9.77;;;2.67;;
39948;SDS011;29070;48.102;-1.652;2023-07-20T04:46:20;4.93;;;2.35;;
39948;SDS011;29070;48.102;-1.652;2023-07-20T04:51:21;6.22;;;2.45;;
39948;SDS011;29070;48.102;-1.652;2023-07-20T04:56:22;6.40;;;2.67;;
39948;SDS011;29070;48.102;-1.652;2023-07-20T05:01:25;7.15;;;2.60;;
39948;SDS011;29070;48.102;-1.652;2023-07-20T05:06:26;8.25;;;2.88;;
39948;SDS011;29070;48.102;-1.652;2023-07-20T05:11:27;8.47;;;3.53;;
39948;SDS011;29070;48.102;-1.652;2023-07-20T05:16:27;5.23;;;2.00;;
39948;SDS011;29070;48.102;-1.652;2023-07-20T05:21:27;5.53;;;2.67;;
39948;SDS011;29070;48.102;-1.652;2023-07-20T05:26:27;7.33;;;2.50;;
39948;SDS011;29070;48.102;-1.652;2023-07-20T05:31:28;5.13;;;2.23;;
39948;SDS011;29070;48.102;-1.652;2023-07-20T05:36:30;13.65;;;3.28;;
39948;SDS011;29070;48.102;-1.652;2023-07-20T05:41:31;6.18;;;2.42;;
39948;SDS011;29070;48.102;-1.652;2023-07-20T05:46:31;5.00;;;2.60;;
39948;SDS011;29070;48.102;-1.652;2023-07-20T05:51:31;3.97;;;2.30;;
39948;SDS011;29070;48.102;-1.652;2023-07-20T05:56:32;4.53;;;2.47;;
39948;SDS011;29070;48.102;-1.652;2023-07-20T06:01:32;9.27;;;2.70;;
39948;SDS011;29070;48.102;-1.652;2023-07-20T06:06:32;3.77;;;2.10;;
39948;SDS011;29070;48.102;-1.652;2023-07-20T06:11:33;5.35;;;1.90;;
39948;SDS011;29070;48.102;-1.652;2023-07-20T06:16:33;5.27;;;2.30;;
39948;SDS011;29070;48.102;-1.652;2023-07-20T06:21:33;3.10;;;2.00;;
39948;SDS011;29070;48.102;-1.652;2023-07-20T06:26:34;4.65;;;2.03;;
39948;SDS011;29070;48.102;-1.652;2023-07-20T06:31:41;4.85;;;2.00;;
39948;SDS011;29070;48.102;-1.652;2023-07-20T06:36:41;4.87;;;2.23;;
39948;SDS011;29070;48.102;-1.652;2023-07-20T06:41:41;6.80;;;2.07;;
39948;SDS011;29070;48.102;-1.652;2023-07-20T06:46:42;4.30;;;2.00;;
39948;SDS011;29070;48.102;-1.652;2023-07-20T06:51:42;3.07;;;2.20;;
39948;SDS011;29070;48.102;-1.652;2023-07-20T06:56:43;5.75;;;1.88;;
39948;SDS011;29070;48.102;-1.652;2023-07-20T07:01:43;5.27;;;1.93;;
39948;SDS011;29070;48.102;-1.652;2023-07-20T07:06:44;5.30;;;1.87;;
39948;SDS011;29070;48.102;-1.652;2023-07-20T07:11:44;6.10;;;2.33;;
39948;SDS011;29070;48.102;-1.652;2023-07-20T07:16:45;2.65;;;1.70;;
39948;SDS011;29070;48.102;-1.652;2023-07-20T07:21:45;3.73;;;1.60;;
39948;SDS011;29070;48.102;-1.652;2023-07-20T07:26:46;9.80;;;1.92;;
39948;SDS011;29070;48.102;-1.652;2023-07-20T07:31:47;5.13;;;2.00;;
39948;SDS011;29070;48.102;-1.652;2023-07-20T07:36:47;5.37;;;1.67;;
39948;SDS011;29070;48.102;-1.652;2023-07-20T07:41:47;5.47;;;1.73;;
39948;SDS011;29070;48.102;-1.652;2023-07-20T07:46:48;4.73;;;1.37;;
39948;SDS011;29070;48.102;-1.652;2023-07-20T07:51:48;5.35;;;1.83;;
39948;SDS011;29070;48.102;-1.652;2023-07-20T07:56:49;4.60;;;1.40;;
39948;SDS011;29070;48.102;-1.652;2023-07-20T08:01:51;5.53;;;1.73;;
39948;SDS011;29070;48.102;-1.652;2023-07-20T08:06:51;3.00;;;1.57;;
39948;SDS011;29070;48.102;-1.652;2023-07-20T08:11:51;2.40;;;1.20;;
39948;SDS011;29070;48.102;-1.652;2023-07-20T08:16:52;4.90;;;1.20;;
39948;SDS011;29070;48.102;-1.652;2023-07-20T08:21:53;3.30;;;1.65;;
39948;SDS011;29070;48.102;-1.652;2023-07-20T08:26:53;4.10;;;1.30;;
39948;SDS011;29070;48.102;-1.652;2023-07-20T08:31:53;3.97;;;1.40;;
39948;SDS011;29070;48.102;-1.652;2023-07-20T08:36:54;2.60;;;1.23;;
39948;SDS011;29070;48.102;-1.652;2023-07-20T08:41:54;5.40;;;1.87;;
39948;SDS011;29070;48.102;-1.652;2023-07-20T08:46:56;2.45;;;1.33;;
39948;SDS011;29070;48.102;-1.652;2023-07-20T08:51:58;3.72;;;1.10;;
39948;SDS011;29070;48.102;-1.652;2023-07-20T08:57:03;3.50;;;1.48;;
39948;SDS011;29070;48.102;-1.652;2023-07-20T09:02:05;2.92;;;1.42;;
39948;SDS011;29070;48.102;-1.652;2023-07-20T09:07:07;2.90;;;1.15;;
39948;SDS011;29070;48.102;-1.652;2023-07-20T09:12:14;2.78;;;1.40;;
39948;SDS011;29070;48.102;-1.652;2023-07-20T09:17:16;5.40;;;1.05;;
39948;SDS011;29070;48.102;-1.652;2023-07-20T09:22:16;2.93;;;1.33;;
39948;SDS011;29070;48.102;-1.652;2023-07-20T09:27:17;2.80;;;0.98;;
39948;SDS011;29070;48.102;-1.652;2023-07-20T09:32:21;3.80;;;1.13;;
39948;SDS011;29070;48.102;-1.652;2023-07-20T09:37:22;3.35;;;0.82;;
39948;SDS011;29070;48.102;-1.652;2023-07-20T09:42:23;3.50;;;1.05;;
39948;SDS011;29070;48.102;-1.652;2023-07-20T09:47:25;3.63;;;1.30;;
39948;SDS011;29070;48.102;-1.652;2023-07-20T09:52:26;2.47;;;0.95;;
39948;SDS011;29070;48.102;-1.652;2023-07-20T09:57:27;1.98;;;0.95;;
39948;SDS011;29070;48.102;-1.652;2023-07-20T10:02:32;4.05;;;1.55;;
39948;SDS011;29070;48.102;-1.652;2023-07-20T10:07:33;1.83;;;1.00;;
39948;SDS011;29070;48.102;-1.652;2023-07-20T10:12:37;3.70;;;0.80;;
39948;SDS011;29070;48.102;-1.652;2023-07-20T10:17:47;2.70;;;0.90;;
39948;SDS011;29070;48.102;-1.652;2023-07-20T10:22:55;2.08;;;0.80;;
39948;SDS011;29070;48.102;-1.652;2023-07-20T10:27:57;3.28;;;0.80;;
39948;SDS011;29070;48.102;-1.652;2023-07-20T10:32:58;1.73;;;1.02;;
39948;SDS011;29070;48.102;-1.652;2023-07-20T10:38:03;1.67;;;1.02;;
39948;SDS011;29070;48.102;-1.652;2023-07-20T10:43:07;2.00;;;0.90;;
39948;SDS011;29070;48.102;-1.652;2023-07-20T10:48:15;1.27;;;0.70;;
39948;SDS011;29070;48.102;-1.652;2023-07-20T10:53:17;3.55;;;1.00;;
39948;SDS011;29070;48.102;-1.652;2023-07-20T10:58:18;4.15;;;0.90;;
39948;SDS011;29070;48.102;-1.652;2023-07-20T11:03:30;6.20;;;1.13;;
39948;SDS011;29070;48.102;-1.652;2023-07-20T11:08:41;2.50;;;0.98;;
39948;SDS011;29070;48.102;-1.652;2023-07-20T11:13:53;1.70;;;0.98;;
39948;SDS011;29070;48.102;-1.652;2023-07-20T11:18:55;2.67;;;1.00;;
39948;SDS011;29070;48.102;-1.652;2023-07-20T11:23:56;2.47;;;0.90;;
39948;SDS011;29070;48.102;-1.652;2023-07-20T11:28:58;3.63;;;0.90;;
39948;SDS011;29070;48.102;-1.652;2023-07-20T11:33:58;2.58;;;0.65;;
39948;SDS011;29070;48.102;-1.652;2023-07-20T11:38:58;1.27;;;0.77;;
39948;SDS011;29070;48.102;-1.652;2023-07-20T11:43:59;5.32;;;0.90;;
39948;SDS011;29070;48.102;-1.652;2023-07-20T11:49:01;2.38;;;0.88;;
39948;SDS011;29070;48.102;-1.652;2023-07-20T11:54:01;2.72;;;0.90;;
39948;SDS011;29070;48.102;-1.652;2023-07-20T11:59:02;3.08;;;1.02;;
39948;SDS011;29070;48.102;-1.652;2023-07-20T12:04:04;1.50;;;0.73;;
39948;SDS011;29070;48.102;-1.652;2023-07-20T12:09:04;3.10;;;0.90;;
39948;SDS011;29070;48.102;-1.652;2023-07-20T12:14:08;1.20;;;0.70;;
39948;SDS011;29070;48.102;-1.652;2023-07-20T12:19:10;4.60;;;0.95;;
39948;SDS011;29070;48.102;-1.652;2023-07-20T12:24:12;3.60;;;1.00;;
39948;SDS011;29070;48.102;-1.652;2023-07-20T12:29:12;4.57;;;1.48;;
39948;SDS011;29070;48.102;-1.652;2023-07-20T12:34:13;1.50;;;0.68;;
39948;SDS011;29070;48.102;-1.652;2023-07-20T12:39:13;1.20;;;0.73;;
39948;SDS011;29070;48.102;-1.652;2023-07-20T12:44:13;1.83;;;0.80;;
39948;SDS011;29070;48.102;-1.652;2023-07-20T12:49:14;1.80;;;0.82;;
39948;SDS011;29070;48.102;-1.652;2023-07-20T12:54:15;1.90;;;0.60;;
39948;SDS011;29070;48.102;-1.652;2023-07-20T12:59:15;1.53;;;0.60;;
39948;SDS011;29070;48.102;-1.652;2023-07-20T13:04:15;2.57;;;0.60;;
39948;SDS011;29070;48.102;-1.652;2023-07-20T13:09:16;5.30;;;0.70;;
39948;SDS011;29070;48.102;-1.652;2023-07-20T13:14:16;4.43;;;0.80;;
39948;SDS011;29070;48.102;-1.652;2023-07-20T13:19:16;2.13;;;0.70;;
39948;SDS011;29070;48.102;-1.652;2023-07-20T13:24:17;2.38;;;0.60;;
39948;SDS011;29070;48.102;-1.652;2023-07-20T13:29:17;1.83;;;0.70;;
39948;SDS011;29070;48.102;-1.652;2023-07-20T13:34:18;1.35;;;0.70;;
39948;SDS011;29070;48.102;-1.652;2023-07-20T13:39:19;3.50;;;0.90;;
39948;SDS011;29070;48.102;-1.652;2023-07-20T13:44:19;3.23;;;0.70;;
39948;SDS011;29070;48.102;-1.652;2023-07-20T13:49:23;2.60;;;0.60;;
39948;SDS011;29070;48.102;-1.652;2023-07-20T13:54:23;2.07;;;0.63;;
39948;SDS011;29070;48.102;-1.652;2023-07-20T13:59:24;2.75;;;0.75;;
39948;SDS011;29070;48.102;-1.652;2023-07-20T14:04:25;2.45;;;0.60;;
39948;SDS011;29070;48.102;-1.652;2023-07-20T14:09:25;1.70;;;0.60;;
39948;SDS011;29070;48.102;-1.652;2023-07-20T14:14:26;1.83;;;0.60;;
39948;SDS011;29070;48.102;-1.652;2023-07-20T14:19:26;2.00;;;0.70;;
39948;SDS011;29070;48.102;-1.652;2023-07-20T14:24:26;4.30;;;1.00;;
39948;SDS011;29070;48.102;-1.652;2023-07-20T14:29:27;2.47;;;0.97;;
39948;SDS011;29070;48.102;-1.652;2023-07-20T14:34:31;4.97;;;0.70;;
39948;SDS011;29070;48.102;-1.652;2023-07-20T14:39:31;4.93;;;0.82;;
39948;SDS011;29070;48.102;-1.652;2023-07-20T14:44:32;1.90;;;0.50;;
39948;SDS011;29070;48.102;-1.652;2023-07-20T14:49:33;2.55;;;0.82;;
39948;SDS011;29070;48.102;-1.652;2023-07-20T14:54:33;5.30;;;0.90;;
39948;SDS011;29070;48.102;-1.652;2023-07-20T14:59:34;4.10;;;1.03;;
39948;SDS011;29070;48.102;-1.652;2023-07-20T15:04:34;1.50;;;0.70;;
39948;SDS011;29070;48.102;-1.652;2023-07-20T15:09:34;2.87;;;0.70;;
39948;SDS011;29070;48.102;-1.652;2023-07-20T15:14:34;2.47;;;0.80;;
39948;SDS011;29070;48.102;-1.652;2023-07-20T15:19:35;3.67;;;0.90;;
39948;SDS011;29070;48.102;-1.652;2023-07-20T15:24:35;1.98;;;0.77;;
39948;SDS011;29070;48.102;-1.652;2023-07-20T15:29:36;3.57;;;1.00;;
39948;SDS011;29070;48.102;-1.652;2023-07-20T15:34:36;1.87;;;0.90;;
39948;SDS011;29070;48.102;-1.652;2023-07-20T15:39:37;3.83;;;1.13;;
39948;SDS011;29070;48.102;-1.652;2023-07-20T15:44:37;1.55;;;0.77;;
39948;SDS011;29070;48.102;-1.652;2023-07-20T15:49:38;2.03;;;0.70;;
39948;SDS011;29070;48.102;-1.652;2023-07-20T15:54:38;1.25;;;0.55;;
39948;SDS011;29070;48.102;-1.652;2023-07-20T15:59:40;3.15;;;0.73;;
39948;SDS011;29070;48.102;-1.652;2023-07-20T16:04:40;1.93;;;0.60;;
39948;SDS011;29070;48.102;-1.652;2023-07-20T16:09:41;1.80;;;0.70;;
39948;SDS011;29070;48.102;-1.652;2023-07-20T16:14:41;5.10;;;0.90;;
39948;SDS011;29070;48.102;-1.652;2023-07-20T16:19:42;2.50;;;0.85;;
39948;SDS011;29070;48.102;-1.652;2023-07-20T16:24:42;1.80;;;0.70;;
39948;SDS011;29070;48.102;-1.652;2023-07-20T16:29:42;0.80;;;0.53;;
39948;SDS011;29070;48.102;-1.652;2023-07-20T16:34:43;1.53;;;0.70;;
39948;SDS011;29070;48.102;-1.652;2023-07-20T16:39:43;1.17;;;0.83;;
39948;SDS011;29070;48.102;-1.652;2023-07-20T16:44:48;1.90;;;0.55;;
39948;SDS011;29070;48.102;-1.652;2023-07-20T16:49:49;3.55;;;1.15;;
39948;SDS011;29070;48.102;-1.652;2023-07-20T16:54:50;2.00;;;0.70;;
39948;SDS011;29070;48.102;-1.652;2023-07-20T16:59:50;0.87;;;0.60;;
39948;SDS011;29070;48.102;-1.652;2023-07-20T17:04:50;0.80;;;0.60;;
39948;SDS011;29070;48.102;-1.652;2023-07-20T17:09:50;1.97;;;0.70;;
39948;SDS011;29070;48.102;-1.652;2023-07-20T17:14:51;2.83;;;0.53;;
39948;SDS011;29070;48.102;-1.652;2023-07-20T17:19:51;3.10;;;0.70;;
39948;SDS011;29070;48.102;-1.652;2023-07-20T17:24:52;1.57;;;0.90;;
39948;SDS011;29070;48.102;-1.652;2023-07-20T17:29:52;1.80;;;0.87;;
39948;SDS011;29070;48.102;-1.652;2023-07-20T17:34:53;1.40;;;0.80;;
39948;SDS011;29070;48.102;-1.652;2023-07-20T17:39:55;2.13;;;0.85;;
39948;SDS011;29070;48.102;-1.652;2023-07-20T17:44:55;2.27;;;0.93;;
39948;SDS011;29070;48.102;-1.652;2023-07-20T17:49:56;4.15;;;1.38;;
39948;SDS011;29070;48.102;-1.652;2023-07-20T17:54:57;1.52;;;0.63;;
39948;SDS011;29070;48.102;-1.652;2023-07-20T17:59:59;4.03;;;1.38;;
39948;SDS011;29070;48.102;-1.652;2023-07-20T18:04:59;2.27;;;0.80;;
39948;SDS011;29070;48.102;-1.652;2023-07-20T18:10:02;1.60;;;0.97;;
39948;SDS011;29070;48.102;-1.652;2023-07-20T18:15:04;1.00;;;0.70;;
39948;SDS011;29070;48.102;-1.652;2023-07-20T18:20:05;2.58;;;1.15;;
39948;SDS011;29070;48.102;-1.652;2023-07-20T18:25:06;1.67;;;0.80;;
39948;SDS011;29070;48.102;-1.652;2023-07-20T18:30:07;1.77;;;0.85;;
39948;SDS011;29070;48.102;-1.652;2023-07-20T18:35:08;0.93;;;0.70;;
39948;SDS011;29070;48.102;-1.652;2023-07-20T18:40:08;1.55;;;0.70;;
39948;SDS011;29070;48.102;-1.652;2023-07-20T18:45:09;1.63;;;0.80;;
39948;SDS011;29070;48.102;-1.652;2023-07-20T18:50:10;4.37;;;0.70;;
39948;SDS011;29070;48.102;-1.652;2023-07-20T18:55:11;1.63;;;0.80;;
39948;SDS011;29070;48.102;-1.652;2023-07-20T19:00:11;7.80;;;2.20;;
39948;SDS011;29070;48.102;-1.652;2023-07-20T19:05:13;6.45;;;2.28;;
39948;SDS011;29070;48.102;-1.652;2023-07-20T19:10:14;5.53;;;1.30;;
39948;SDS011;29070;48.102;-1.652;2023-07-20T19:15:14;3.53;;;1.00;;
39948;SDS011;29070;48.102;-1.652;2023-07-20T19:20:15;1.60;;;0.93;;
39948;SDS011;29070;48.102;-1.652;2023-07-20T19:25:16;1.73;;;0.70;;
39948;SDS011;29070;48.102;-1.652;2023-07-20T19:30:16;1.00;;;0.80;;
39948;SDS011;29070;48.102;-1.652;2023-07-20T19:35:16;3.37;;;0.80;;
39948;SDS011;29070;48.102;-1.652;2023-07-20T19:40:17;1.33;;;0.67;;
39948;SDS011;29070;48.102;-1.652;2023-07-20T19:45:17;2.45;;;1.27;;
39948;SDS011;29070;48.102;-1.652;2023-07-20T19:50:17;2.17;;;1.40;;
39948;SDS011;29070;48.102;-1.652;2023-07-20T19:55:18;1.70;;;1.07;;
39948;SDS011;29070;48.102;-1.652;2023-07-20T20:00:19;2.47;;;1.02;;
39948;SDS011;29070;48.102;-1.652;2023-07-20T20:05:20;2.92;;;1.10;;
39948;SDS011;29070;48.102;-1.652;2023-07-20T20:10:21;3.63;;;1.30;;
39948;SDS011;29070;48.102;-1.652;2023-07-20T20:15:21;2.40;;;1.00;;
39948;SDS011;29070;48.102;-1.652;2023-07-20T20:20:21;1.70;;;0.90;;
39948;SDS011;29070;48.102;-1.652;2023-07-20T20:25:22;1.70;;;0.80;;
39948;SDS011;29070;48.102;-1.652;2023-07-20T20:30:23;1.70;;;1.00;;
39948;SDS011;29070;48.102;-1.652;2023-07-20T20:35:23;2.10;;;1.00;;
39948;SDS011;29070;48.102;-1.652;2023-07-20T20:40:24;2.97;;;1.20;;
39948;SDS011;29070;48.102;-1.652;2023-07-20T20:45:26;2.97;;;1.23;;
39948;SDS011;29070;48.102;-1.652;2023-07-20T20:50:27;2.40;;;0.90;;
39948;SDS011;29070;48.102;-1.652;2023-07-20T20:55:27;2.60;;;1.20;;
39948;SDS011;29070;48.102;-1.652;2023-07-20T21:00:28;3.03;;;1.20;;
39948;SDS011;29070;48.102;-1.652;2023-07-20T21:05:32;2.67;;;0.80;;
39948;SDS011;29070;48.102;-1.652;2023-07-20T21:10:33;2.33;;;0.90;;
39948;SDS011;29070;48.102;-1.652;2023-07-20T21:15:34;5.38;;;0.90;;
39948;SDS011;29070;48.102;-1.652;2023-07-20T21:20:35;2.65;;;0.88;;
39948;SDS011;29070;48.102;-1.652;2023-07-20T21:25:35;1.03;;;0.70;;
39948;SDS011;29070;48.102;-1.652;2023-07-20T21:30:36;2.40;;;0.93;;
39948;SDS011;29070;48.102;-1.652;2023-07-20T21:35:36;2.67;;;0.75;;
39948;SDS011;29070;48.102;-1.652;2023-07-20T21:40:37;1.37;;;0.73;;
39948;SDS011;29070;48.102;-1.652;2023-07-20T21:45:38;2.45;;;0.88;;
39948;SDS011;29070;48.102;-1.652;2023-07-20T21:50:50;1.20;;;0.70;;
39948;SDS011;29070;48.102;-1.652;2023-07-20T21:55:51;2.15;;;0.70;;
39948;SDS011;29070;48.102;-1.652;2023-07-20T22:00:52;1.73;;;1.00;;
39948;SDS011;29070;48.102;-1.652;2023-07-20T22:05:55;1.90;;;0.93;;
39948;SDS011;29070;48.102;-1.652;2023-07-20T22:10:55;1.80;;;0.70;;
39948;SDS011;29070;48.102;-1.652;2023-07-20T22:15:56;2.63;;;0.98;;
39948;SDS011;29070;48.102;-1.652;2023-07-20T22:20:57;1.43;;;0.93;;
39948;SDS011;29070;48.102;-1.652;2023-07-20T22:26:04;3.85;;;1.23;;
39948;SDS011;29070;48.102;-1.652;2023-07-20T22:31:04;4.63;;;1.07;;
39948;SDS011;29070;48.102;-1.652;2023-07-20T22:36:04;1.27;;;0.70;;
39948;SDS011;29070;48.102;-1.652;2023-07-20T22:41:05;3.00;;;1.10;;
39948;SDS011;29070;48.102;-1.652;2023-07-20T22:46:05;1.50;;;0.67;;
39948;SDS011;29070;48.102;-1.652;2023-07-20T22:51:05;2.73;;;0.90;;
39948;SDS011;29070;48.102;-1.652;2023-07-20T22:56:06;1.37;;;0.90;;
39948;SDS011;29070;48.102;-1.652;2023-07-20T23:01:09;3.30;;;1.33;;
39948;SDS011;29070;48.102;-1.652;2023-07-20T23:06:10;1.88;;;1.00;;
39948;SDS011;29070;48.102;-1.652;2023-07-20T23:11:10;2.50;;;1.00;;
39948;SDS011;29070;48.102;-1.652;2023-07-20T23:16:12;2.85;;;1.20;;
39948;SDS011;29070;48.102;-1.652;2023-07-20T23:21:12;4.57;;;1.47;;
39948;SDS011;29070;48.102;-1.652;2023-07-20T23:26:14;2.30;;;1.08;;
39948;SDS011;29070;48.102;-1.652;2023-07-20T23:31:15;2.23;;;1.13;;
39948;SDS011;29070;48.102;-1.652;2023-07-20T23:36:15;2.58;;;1.33;;
39948;SDS011;29070;48.102;-1.652;2023-07-20T23:41:16;2.37;;;1.23;;
39948;SDS011;29070;48.102;-1.652;2023-07-20T23:46:16;2.95;;;1.40;;
39948;SDS011;29070;48.102;-1.652;2023-07-20T23:51:22;4.72;;;1.30;;
39948;SDS011;29070;48.102;-1.652;2023-07-20T23:56:23;3.05;;;1.40;;
